Time;durP1;ratioP1;P1;durP2;ratioP2;P2;SDS_P1;SDS_P2;PMS_P1;PMS_P2;Temp;Humidity;BMP_temperature;BMP_pressure;BME280_temperature;BME280_humidity;BME280_pressure;Samples;Min_cycle;Max_cycle;Signal;HPM_P1;HPM_P2
2022/08/29 00:02:02;;;;;;;9.63;2.63;;;;;;;11.94;82.47;101368.69;6047469;28;20033;-65
2022/08/29 00:04:57;;;;;;;9.95;2.45;;;;;;;12.20;82.69;101371.66;6039618;28;20037;-66
2022/08/29 00:07:53;;;;;;;10.23;2.17;;;;;;;12.09;81.29;101372.63;6047830;28;20412;-62
2022/08/29 00:10:48;;;;;;;6.73;2.37;;;;;;;12.28;80.92;101383.28;6039210;28;20038;-66
2022/08/29 00:13:44;;;;;;;8.60;2.50;;;;;;;12.18;81.23;101385.06;6030359;28;20117;-63
2022/08/29 00:16:39;;;;;;;7.18;2.25;;;;;;;12.29;81.84;101376.09;6042092;28;20362;-63
2022/08/29 00:19:34;;;;;;;12.32;2.85;;;;;;;12.10;80.92;101361.00;6046442;28;20034;-65
2022/08/29 00:22:30;;;;;;;8.17;2.70;;;;;;;12.18;81.58;101370.94;6047449;28;20565;-64
2022/08/29 00:25:25;;;;;;;6.43;2.80;;;;;;;12.04;82.30;101368.72;6047921;28;20034;-63
2022/08/29 00:28:21;;;;;;;11.48;2.10;;;;;;;12.05;82.17;101373.03;6046053;28;20113;-65
2022/08/29 00:31:16;;;;;;;8.45;2.75;;;;;;;12.10;82.91;101373.44;6047038;28;20030;-63
2022/08/29 00:34:11;;;;;;;7.70;2.27;;;;;;;11.85;83.36;101374.81;6046994;28;20057;-65
2022/08/29 00:37:07;;;;;;;11.13;2.50;;;;;;;12.08;83.13;101372.75;6040533;28;20065;-66
2022/08/29 00:40:08;;;;;;;8.17;2.50;;;;;;;12.22;81.79;101369.69;6046817;28;20041;-63
2022/08/29 00:43:04;;;;;;;8.77;2.70;;;;;;;12.12;82.68;101387.47;6047043;28;20026;-64
2022/08/29 00:46:09;;;;;;;8.88;2.85;;;;;;;12.01;83.13;101376.97;6047144;28;20112;-64
2022/08/29 00:49:08;;;;;;;6.38;2.15;;;;;;;11.92;83.21;101384.78;6045056;28;20362;-66
2022/08/29 00:52:09;;;;;;;10.63;2.30;;;;;;;11.75;84.10;101377.47;6037450;28;20038;-65
2022/08/29 00:55:11;;;;;;;6.47;2.13;;;;;;;11.81;83.97;101378.75;6057904;28;20474;-66
2022/08/29 00:58:17;;;;;;;6.35;2.13;;;;;;;11.59;85.20;101382.47;6045175;28;20742;-63
2022/08/29 01:01:13;;;;;;;7.85;2.30;;;;;;;11.36;86.35;101373.84;6044256;28;20033;-64
2022/08/29 01:04:09;;;;;;;9.05;3.03;;;;;;;11.31;85.81;101369.91;6046103;28;20785;-65
2022/08/29 01:07:06;;;;;;;7.22;2.35;;;;;;;11.42;85.70;101382.25;6046517;28;20673;-64
2022/08/29 01:10:03;;;;;;;7.00;2.10;;;;;;;11.38;86.32;101379.03;6045881;28;20104;-66
2022/08/29 01:12:59;;;;;;;8.68;2.50;;;;;;;11.29;86.54;101380.69;6046707;28;20040;-65
2022/08/29 01:15:55;;;;;;;7.60;2.40;;;;;;;11.12;87.63;101367.19;6041645;28;20034;-65
2022/08/29 01:18:52;;;;;;;7.57;2.58;;;;;;;10.99;87.89;101378.03;6040979;28;20405;-66
2022/08/29 01:22:15;;;;;;;6.65;2.97;;;;;;;11.01;88.44;101388.50;6045642;28;20057;-65
2022/08/29 01:25:15;;;;;;;9.77;2.47;;;;;;;10.92;89.10;101379.56;6045527;28;20203;-66
2022/08/29 01:28:15;;;;;;;8.90;2.55;;;;;;;10.92;89.32;101381.34;6046022;28;20098;-65
2022/08/29 01:31:16;;;;;;;6.47;2.47;;;;;;;10.96;89.51;101382.75;6045437;28;20030;-65
2022/08/29 01:34:12;;;;;;;6.07;2.30;;;;;;;10.89;89.15;101373.66;6045038;28;20042;-66
2022/08/29 01:37:11;;;;;;;5.35;2.13;;;;;;;10.77;89.25;101373.72;6033306;28;20052;-65
2022/08/29 01:40:07;;;;;;;8.40;2.15;;;;;;;10.75;89.87;101386.28;6042542;28;20045;-64
2022/08/29 01:43:02;;;;;;;10.25;3.00;;;;;;;10.79;90.12;101384.19;6045482;28;20073;-65
2022/08/29 01:45:57;;;;;;;7.87;2.93;;;;;;;11.03;89.57;101378.63;6043822;28;20030;-65
2022/08/29 01:48:54;;;;;;;9.95;2.55;;;;;;;10.96;89.42;101377.44;6035414;28;20041;-63
2022/08/29 01:51:49;;;;;;;10.05;2.92;;;;;;;11.12;89.62;101372.50;6045394;28;20033;-64
2022/08/29 01:54:45;;;;;;;8.70;2.53;;;;;;;11.21;89.16;101392.94;6046110;28;20092;-66
2022/08/29 01:57:41;;;;;;;8.88;2.58;;;;;;;11.13;88.73;101380.34;6041181;28;20040;-65
2022/08/29 02:00:36;;;;;;;10.70;2.50;;;;;;;11.40;88.25;101390.38;6036046;28;20456;-67
2022/08/29 02:03:31;;;;;;;8.80;2.53;;;;;;;11.70;88.10;101395.66;6045326;28;20277;-65
2022/08/29 02:06:27;;;;;;;7.97;3.10;;;;;;;11.54;87.37;101386.50;6045440;28;20289;-65
2022/08/29 02:09:24;;;;;;;6.75;2.70;;;;;;;11.58;87.33;101386.06;6045543;28;20261;-65
2022/08/29 02:12:19;;;;;;;11.27;2.47;;;;;;;11.58;86.93;101385.22;6044592;28;20038;-65
2022/08/29 02:15:17;;;;;;;9.07;2.53;;;;;;;11.65;86.85;101387.22;6032373;28;20502;-64
2022/08/29 02:18:12;;;;;;;6.25;2.67;;;;;;;11.72;85.61;101387.53;6040527;28;20038;-64
2022/08/29 02:21:10;;;;;;;6.23;2.40;;;;;;;11.80;86.12;101387.69;6049784;28;20561;-66
2022/08/29 02:24:05;;;;;;;6.45;2.30;;;;;;;11.72;86.53;101388.38;6050118;28;20038;-66
2022/08/29 02:27:01;;;;;;;5.93;2.33;;;;;;;11.68;85.88;101394.94;6049890;28;20037;-67
2022/08/29 02:29:56;;;;;;;6.78;2.05;;;;;;;11.71;85.56;101386.69;6048297;28;20431;-66
2022/08/29 02:32:52;;;;;;;8.93;2.30;;;;;;;11.91;85.09;101385.75;6049553;28;20433;-66
2022/08/29 02:35:48;;;;;;;6.88;2.63;;;;;;;11.99;85.23;101381.56;6039407;28;20072;-65
2022/08/29 02:38:43;;;;;;;11.93;2.53;;;;;;;12.14;84.62;101390.81;6050068;28;20042;-66
2022/08/29 02:41:39;;;;;;;7.20;2.55;;;;;;;12.14;84.22;101393.47;6049079;28;20042;-64
2022/08/29 02:44:35;;;;;;;8.80;2.65;;;;;;;12.16;84.67;101378.22;6049768;28;20173;-66
2022/08/29 02:47:34;;;;;;;6.50;2.23;;;;;;;12.38;83.59;101399.22;6047124;28;20026;-65
2022/08/29 02:50:29;;;;;;;8.25;2.33;;;;;;;12.35;83.08;101394.16;6042768;28;20034;-65
2022/08/29 02:53:30;;;;;;;8.07;2.35;;;;;;;12.35;82.91;101391.50;6065185;28;20470;-66
2022/08/29 02:56:26;;;;;;;7.70;2.55;;;;;;;12.29;83.43;101389.41;6049573;28;20393;-66
2022/08/29 02:59:21;;;;;;;8.18;2.28;;;;;;;12.54;84.06;101402.13;6049974;28;20361;-67
2022/08/29 03:02:17;;;;;;;9.40;2.97;;;;;;;12.65;82.60;101388.69;6044179;28;20042;-65
2022/08/29 03:05:14;;;;;;;11.40;2.90;;;;;;;12.62;82.14;101391.63;6038786;28;20036;-64
2022/08/29 03:08:12;;;;;;;5.28;2.03;;;;;;;12.63;81.87;101382.66;6048990;28;20042;-66
2022/08/29 03:11:07;;;;;;;7.82;2.20;;;;;;;12.68;82.20;101395.53;6048611;28;20437;-65
2022/08/29 03:14:03;;;;;;;9.03;2.10;;;;;;;12.58;82.34;101395.56;6044868;28;20030;-66
2022/08/29 03:16:58;;;;;;;6.45;2.15;;;;;;;12.58;82.05;101387.59;6041747;28;20038;-66
2022/08/29 03:19:54;;;;;;;9.50;2.50;;;;;;;12.60;82.09;101382.97;6041175;28;20022;-66
2022/08/29 03:22:51;;;;;;;6.95;2.00;;;;;;;12.75;82.08;101397.47;6046989;28;20073;-65
2022/08/29 03:25:46;;;;;;;6.90;2.50;;;;;;;12.83;81.81;101386.09;6045766;28;20045;-66
2022/08/29 03:28:42;;;;;;;10.13;3.10;;;;;;;12.77;81.35;101376.91;6046363;28;20065;-67
2022/08/29 03:31:38;;;;;;;4.18;1.95;;;;;;;12.94;81.67;101393.94;6048094;28;20477;-65
2022/08/29 03:34:33;;;;;;;5.38;1.98;;;;;;;12.88;81.66;101381.22;6048861;28;20100;-64
2022/08/29 03:37:28;;;;;;;5.60;2.20;;;;;;;13.01;81.30;101395.91;6048795;28;20037;-67
2022/08/29 03:40:24;;;;;;;6.57;2.57;;;;;;;12.96;81.87;101387.47;6045445;28;20065;-64
2022/08/29 03:43:20;;;;;;;7.82;2.03;;;;;;;13.00;81.67;101398.69;6048627;28;20055;-67
2022/08/29 03:46:16;;;;;;;8.38;2.63;;;;;;;13.02;81.30;101386.91;6041671;28;20037;-65
2022/08/29 03:49:11;;;;;;;8.50;1.90;;;;;;;13.11;81.54;101387.88;6041379;28;20086;-66
2022/08/29 03:52:09;;;;;;;7.22;2.50;;;;;;;13.16;81.13;101388.28;6047650;28;20033;-64
2022/08/29 03:55:06;;;;;;;7.45;2.10;;;;;;;13.13;81.58;101384.09;6048200;28;20026;-66
2022/08/29 03:58:01;;;;;;;6.45;1.90;;;;;;;13.11;81.58;101394.06;6048271;28;20033;-65
2022/08/29 04:00:57;;;;;;;7.55;2.10;;;;;;;13.24;81.80;101395.53;6046730;28;20022;-65
2022/08/29 04:03:54;;;;;;;5.15;1.92;;;;;;;13.34;81.58;101383.03;6042881;28;20041;-66
2022/08/29 04:06:49;;;;;;;6.18;2.30;;;;;;;13.47;80.53;101394.19;6047869;28;20465;-67
2022/08/29 04:09:45;;;;;;;9.45;2.10;;;;;;;13.37;80.72;101386.22;6048198;28;20064;-66
2022/08/29 04:12:40;;;;;;;6.70;2.10;;;;;;;13.34;81.23;101397.19;6047308;28;20042;-65
2022/08/29 04:15:38;;;;;;;6.67;2.10;;;;;;;13.44;81.20;101390.00;6047597;28;20029;-65
2022/08/29 04:18:33;;;;;;;10.45;2.40;;;;;;;13.56;80.91;101395.97;6038544;28;20034;-64
2022/08/29 04:21:29;;;;;;;8.43;3.00;;;;;;;13.75;80.47;101390.53;6046930;28;20056;-67
2022/08/29 04:24:24;;;;;;;5.50;1.90;;;;;;;13.68;79.51;101389.44;6048080;28;20059;-64
2022/08/29 04:27:19;;;;;;;9.20;2.40;;;;;;;13.81;79.83;101389.91;6042645;28;20045;-66
2022/08/29 04:30:17;;;;;;;5.83;1.90;;;;;;;13.66;80.46;101402.09;6041707;28;20107;-65
2022/08/29 04:33:12;;;;;;;9.05;2.47;;;;;;;13.55;81.02;101394.28;6047350;28;20048;-67
2022/08/29 04:36:07;;;;;;;6.60;2.13;;;;;;;13.66;80.51;101408.25;6040546;28;20385;-66
2022/08/29 04:39:05;;;;;;;7.90;2.03;;;;;;;13.58;81.16;101399.31;6044908;28;20041;-65
2022/08/29 04:42:00;;;;;;;8.85;2.47;;;;;;;13.60;81.34;101402.66;6031425;28;20026;-64
2022/08/29 04:44:56;;;;;;;7.90;2.33;;;;;;;13.65;81.25;101384.41;6045068;28;20032;-62
2022/08/29 04:47:52;;;;;;;6.75;2.00;;;;;;;13.65;81.22;101390.56;6038913;28;20701;-62
2022/08/29 04:50:59;;;;;;;8.15;1.92;;;;;;;13.77;81.05;101403.69;6039528;28;20044;-64
2022/08/29 04:53:55;;;;;;;7.78;2.30;;;;;;;13.68;81.30;101392.09;6038816;28;20466;-66
2022/08/29 04:56:50;;;;;;;10.30;2.63;;;;;;;13.76;81.03;101384.19;6046555;28;20040;-65
2022/08/29 04:59:46;;;;;;;9.18;2.22;;;;;;;13.82;80.62;101399.59;6047163;28;20119;-65
2022/08/29 05:02:42;;;;;;;7.40;2.13;;;;;;;13.89;80.85;101415.84;6046083;28;20048;-64
2022/08/29 05:05:38;;;;;;;4.18;1.73;;;;;;;13.99;81.05;101413.94;6046307;28;20034;-64
2022/08/29 05:08:34;;;;;;;7.60;2.00;;;;;;;13.97;80.82;101406.09;6047318;28;20065;-65
2022/08/29 05:11:31;;;;;;;6.88;2.35;;;;;;;14.07;80.46;101406.88;6045868;28;20766;-66
2022/08/29 05:14:26;;;;;;;6.20;1.88;;;;;;;14.12;80.74;101409.06;6047164;28;20034;-65
2022/08/29 05:17:22;;;;;;;13.47;2.47;;;;;;;14.17;79.95;101404.13;6046574;28;20393;-63
2022/08/29 05:20:17;;;;;;;6.80;2.05;;;;;;;14.20;79.95;101407.34;6046023;28;20261;-63
2022/08/29 05:23:14;;;;;;;10.20;2.73;;;;;;;14.25;79.43;101414.88;6046642;28;20092;-67
2022/08/29 05:26:09;;;;;;;8.65;2.38;;;;;;;14.16;79.54;101389.94;6045945;28;20599;-66
2022/08/29 05:29:06;;;;;;;8.87;1.90;;;;;;;14.24;79.77;101405.22;6034567;28;20038;-64
2022/08/29 05:32:02;;;;;;;9.93;2.10;;;;;;;14.23;79.98;101401.69;6037997;28;20026;-66
2022/08/29 05:34:57;;;;;;;7.70;2.33;;;;;;;14.35;80.04;101414.84;6034416;28;20032;-64
2022/08/29 05:37:53;;;;;;;6.60;2.13;;;;;;;14.56;78.94;101412.69;6046519;28;20317;-65
2022/08/29 05:40:48;;;;;;;6.50;2.55;;;;;;;14.79;77.93;101403.16;6040942;28;20038;-66
2022/08/29 05:43:43;;;;;;;8.23;2.17;;;;;;;14.75;78.34;101423.19;6036773;28;20048;-64
2022/08/29 05:46:39;;;;;;;6.63;2.10;;;;;;;14.73;78.38;101417.16;6034744;28;20061;-67
2022/08/29 05:49:36;;;;;;;9.82;1.98;;;;;;;15.06;77.14;101427.03;6047879;28;20320;-66
2022/08/29 05:52:31;;;;;;;5.43;2.45;;;;;;;15.12;77.36;101431.78;6049641;28;20042;-64
2022/08/29 05:55:27;;;;;;;7.32;2.10;;;;;;;15.27;76.54;101413.31;6041083;28;20435;-63
2022/08/29 05:58:22;;;;;;;6.60;2.00;;;;;;;15.49;76.22;101429.66;6041851;28;20053;-66
2022/08/29 06:01:20;;;;;;;9.55;2.30;;;;;;;15.64;75.41;101432.56;6039419;28;20473;-63
2022/08/29 06:04:16;;;;;;;8.18;2.05;;;;;;;15.63;75.13;101435.38;6054172;28;20033;-63
2022/08/29 06:07:12;;;;;;;9.02;2.15;;;;;;;15.54;75.68;101434.53;6040003;28;20033;-64
2022/08/29 06:10:07;;;;;;;7.93;1.95;;;;;;;15.45;75.93;101433.63;6051784;28;20040;-63
2022/08/29 06:13:03;;;;;;;6.47;2.00;;;;;;;15.70;75.60;101420.38;6053870;28;20087;-67
2022/08/29 06:15:58;;;;;;;7.43;1.93;;;;;;;15.93;74.56;101429.47;6049412;28;20638;-66
2022/08/29 06:18:54;;;;;;;10.57;2.43;;;;;;;15.73;74.86;101423.59;6052107;28;20485;-67
2022/08/29 06:21:49;;;;;;;8.23;2.38;;;;;;;15.61;75.50;101424.03;6047795;28;20036;-64
2022/08/29 06:24:45;;;;;;;9.27;2.20;;;;;;;15.63;76.50;101422.00;6052808;28;20092;-65
2022/08/29 06:27:40;;;;;;;7.40;2.20;;;;;;;15.81;76.10;101438.81;6053005;28;20037;-66
2022/08/29 06:30:35;;;;;;;10.30;1.97;;;;;;;15.82;75.81;101441.31;6051560;28;20038;-65
2022/08/29 06:33:31;;;;;;;5.77;2.20;;;;;;;15.71;76.30;101443.47;6052892;28;20042;-66
2022/08/29 06:36:27;;;;;;;8.97;2.23;;;;;;;15.80;76.29;101432.63;6034915;28;20425;-66
2022/08/29 06:39:22;;;;;;;11.65;2.40;;;;;;;15.97;75.56;101446.91;6038843;28;20030;-63
2022/08/29 06:42:21;;;;;;;8.87;2.33;;;;;;;16.18;75.24;101435.72;6052958;28;20056;-65
2022/08/29 06:45:17;;;;;;;8.30;2.53;;;;;;;16.39;74.36;101439.59;6050258;28;20026;-67
2022/08/29 06:48:12;;;;;;;7.77;3.10;;;;;;;16.38;74.83;101432.59;6050152;28;20025;-66
2022/08/29 06:51:07;;;;;;;12.23;2.60;;;;;;;16.32;75.20;101449.31;6043096;28;20097;-66
2022/08/29 06:54:05;;;;;;;10.83;2.10;;;;;;;16.36;74.76;101445.28;6043559;28;20105;-65
2022/08/29 06:57:00;;;;;;;7.25;2.33;;;;;;;16.42;75.26;101449.16;6044160;28;20036;-67
2022/08/29 06:59:55;;;;;;;9.03;2.43;;;;;;;16.33;75.12;101455.50;6048942;28;20045;-68
2022/08/29 07:02:51;;;;;;;12.00;2.53;;;;;;;16.12;76.25;101458.63;6045618;28;20067;-67
2022/08/29 07:05:51;;;;;;;8.70;2.50;;;;;;;15.94;78.13;101471.28;6048163;28;20474;-65
2022/08/29 07:08:47;;;;;;;10.55;2.72;;;;;;;15.84;80.13;101459.91;6032854;28;20069;-64
2022/08/29 07:11:42;;;;;;;14.75;2.88;;;;;;;15.69;80.95;101472.19;6044957;28;20042;-66
2022/08/29 07:14:37;;;;;;;8.60;2.45;;;;;;;15.68;81.51;101475.88;6045291;28;20044;-64
2022/08/29 07:17:33;;;;;;;7.87;2.60;;;;;;;15.91;81.06;101474.28;6048642;28;20041;-66
2022/08/29 07:20:29;;;;;;;12.25;2.67;;;;;;;15.92;79.66;101467.94;6047193;28;20061;-64
2022/08/29 07:23:25;;;;;;;6.30;2.50;;;;;;;16.19;79.18;101485.59;6040356;28;20119;-67
2022/08/29 07:26:29;;;;;;;8.82;2.92;;;;;;;16.35;78.05;101473.06;6032483;28;20143;-63
2022/08/29 07:29:30;;;;;;;11.43;2.65;;;;;;;16.64;76.99;101465.44;6046707;28;20030;-65
2022/08/29 07:32:26;;;;;;;8.32;2.53;;;;;;;16.94;75.53;101479.16;6046920;28;20452;-64
2022/08/29 07:35:21;;;;;;;11.03;2.47;;;;;;;17.33;73.51;101472.09;6045500;28;20029;-65
2022/08/29 07:38:16;;;;;;;6.25;2.20;;;;;;;17.46;72.85;101477.75;6045613;28;20034;-64
2022/08/29 07:41:13;;;;;;;8.37;2.33;;;;;;;17.24;72.67;101475.78;6036333;28;20085;-65
2022/08/29 07:44:09;;;;;;;9.43;2.65;;;;;;;17.05;73.72;101474.28;6042746;28;20054;-63
2022/08/29 07:47:05;;;;;;;8.27;2.72;;;;;;;16.74;76.10;101477.84;6042267;28;20084;-64
2022/08/29 07:50:01;;;;;;;11.63;2.60;;;;;;;16.64;75.93;101484.19;6040206;28;20037;-63
2022/08/29 07:52:56;;;;;;;6.43;2.72;;;;;;;16.65;76.34;101474.31;6033324;28;20038;-67
2022/08/29 07:55:51;;;;;;;9.30;3.10;;;;;;;16.97;75.62;101478.81;6045732;28;20068;-63
2022/08/29 07:58:47;;;;;;;14.67;3.37;;;;;;;17.19;74.68;101470.94;6043215;28;20029;-65
2022/08/29 08:01:42;;;;;;;13.52;3.65;;;;;;;17.21;75.44;101473.44;6037704;28;20450;-66
2022/08/29 08:04:38;;;;;;;12.90;3.88;;;;;;;17.36;75.25;101471.75;6032310;28;20038;-67
2022/08/29 08:07:41;;;;;;;11.65;3.28;;;;;;;17.77;73.39;101478.66;6028973;28;20033;-64
2022/08/29 08:10:37;;;;;;;8.18;3.30;;;;;;;17.78;73.08;101474.97;6045979;28;20382;-64
2022/08/29 08:13:34;;;;;;;10.88;3.03;;;;;;;17.78;72.83;101474.97;6047715;28;20034;-66
2022/08/29 08:16:30;;;;;;;9.10;2.72;;;;;;;17.81;72.53;101477.31;6047663;28;20425;-66
2022/08/29 08:19:25;;;;;;;7.30;2.85;;;;;;;17.81;73.24;101487.19;6042034;28;20044;-66
2022/08/29 08:22:21;;;;;;;11.23;3.93;;;;;;;17.95;72.58;101477.56;6046024;28;20033;-64
2022/08/29 08:25:16;;;;;;;14.97;3.50;;;;;;;17.90;73.17;101496.06;6037855;28;20026;-67
2022/08/29 08:28:13;;;;;;;14.40;2.80;;;;;;;17.97;73.30;101487.13;6047001;28;20044;-66
2022/08/29 08:31:10;;;;;;;19.27;4.40;;;;;;;17.90;72.94;101502.28;6031166;28;20832;-66
2022/08/29 08:34:06;;;;;;;14.82;3.85;;;;;;;18.14;72.79;101498.63;6023575;28;20125;-66
2022/08/29 08:37:06;;;;;;;10.65;3.13;;;;;;;18.30;72.38;101482.41;6023641;28;20097;-63
2022/08/29 08:40:02;;;;;;;12.77;3.47;;;;;;;18.56;71.25;101499.09;6037301;28;20021;-65
2022/08/29 08:43:00;;;;;;;10.38;3.38;;;;;;;18.78;70.46;101479.41;6041581;28;20321;-64
2022/08/29 08:45:56;;;;;;;13.13;3.92;;;;;;;18.74;70.36;101478.13;6046718;28;20030;-65
2022/08/29 08:48:53;;;;;;;11.07;4.20;;;;;;;18.82;70.90;101488.81;6046640;28;20452;-66
2022/08/29 08:51:51;;;;;;;10.43;3.90;;;;;;;19.13;69.99;101496.78;6046386;28;20034;-66
2022/08/29 08:55:03;;;;;;;15.50;4.57;;;;;;;19.23;69.25;101483.03;6060468;28;20061;-65
2022/08/29 08:58:14;;;;;;;14.40;4.05;;;;;;;19.66;68.25;101476.88;6038050;28;20041;-66
2022/08/29 09:01:25;;;;;;;13.50;3.88;;;;;;;19.77;66.63;101479.09;6043535;28;20034;-64
2022/08/29 09:04:59;;;;;;;9.95;4.10;;;;;;;20.32;65.76;101492.03;6033251;28;20034;-67
2022/08/29 09:08:13;;;;;;;18.52;4.30;;;;;;;20.34;64.78;101489.97;6033020;28;20556;-65
2022/08/29 09:11:18;;;;;;;20.10;4.43;;;;;;;20.85;64.48;101490.69;6032608;28;20103;-66
2022/08/29 09:14:24;;;;;;;14.73;4.95;;;;;;;21.08;63.89;101491.34;6061934;28;20038;-63
2022/08/29 09:17:29;;;;;;;10.23;4.63;;;;;;;21.57;62.46;101490.44;6046295;28;20130;-64
2022/08/29 09:20:27;;;;;;;11.88;5.18;;;;;;;21.06;63.18;101476.38;6046097;28;20041;-65
2022/08/29 09:23:32;;;;;;;11.00;5.65;;;;;;;21.02;63.56;101492.09;6044125;28;20160;-64
2022/08/29 09:26:27;;;;;;;13.10;5.53;;;;;;;21.03;64.09;101476.75;6043926;28;20038;-66
2022/08/29 09:29:27;;;;;;;13.03;5.03;;;;;;;21.13;62.62;101475.41;6023094;28;20030;-64
2022/08/29 09:32:23;;;;;;;;;;;;;;;20.96;64.33;101479.38;6022574;28;20030;-64
2022/08/29 09:35:30;;;;;;;15.13;5.25;;;;;;;21.00;64.58;101488.75;6022697;28;20020;-66
2022/08/29 09:38:26;;;;;;;9.18;4.65;;;;;;;20.92;64.35;101467.31;6041612;28;20552;-65
2022/08/29 09:41:33;;;;;;;14.30;5.13;;;;;;;21.21;63.55;101477.13;6037061;28;20092;-65
2022/08/29 09:44:30;;;;;;;15.40;5.22;;;;;;;21.22;63.88;101471.53;6034649;28;20038;-67
2022/08/29 09:47:28;;;;;;;10.57;4.60;;;;;;;21.33;63.24;101465.56;6038189;28;20111;-67
2022/08/29 09:50:25;;;;;;;16.58;6.15;;;;;;;21.38;63.05;101474.94;6027373;28;20428;-67
2022/08/29 09:53:23;;;;;;;10.80;4.80;;;;;;;21.53;62.85;101486.44;6044772;28;20072;-66
2022/08/29 09:56:22;;;;;;;13.65;5.38;;;;;;;21.57;62.23;101479.63;6046131;28;20033;-66
2022/08/29 09:59:22;;;;;;;;;;;;;;;21.69;62.17;101483.44;6026186;28;20038;-64
2022/08/29 10:02:24;;;;;;;15.38;5.15;;;;;;;21.31;63.09;101485.69;6029715;28;19914;-63
2022/08/29 10:05:49;;;;;;;10.75;5.00;;;;;;;21.63;63.24;101492.34;6045594;28;20037;-62
2022/08/29 10:09:04;;;;;;;12.32;4.53;;;;;;;21.91;61.66;101476.91;6022235;28;20038;-66
2022/08/29 10:12:11;;;;;;;10.52;5.50;;;;;;;21.96;61.51;101479.84;6045482;28;20034;-65
2022/08/29 10:15:09;;;;;;;10.75;5.05;;;;;;;22.04;60.59;101465.34;6040799;28;20802;-67
2022/08/29 10:18:19;;;;;;;11.07;4.60;;;;;;;22.60;60.36;101477.56;6035309;28;20432;-64
2022/08/29 10:21:24;;;;;;;14.20;4.00;;;;;;;23.31;57.76;101470.50;6044005;28;20038;-65
2022/08/29 10:24:53;;;;;;;12.82;4.75;;;;;;;23.34;56.80;101478.22;6038616;28;20034;-64
2022/08/29 10:27:55;;;;;;;9.48;4.10;;;;;;;23.21;57.43;101478.19;6019574;28;20056;-65
2022/08/29 10:31:07;;;;;;;10.15;4.50;;;;;;;22.88;58.75;101469.28;6034205;28;20026;-64
2022/08/29 10:34:27;;;;;;;9.68;4.72;;;;;;;23.36;57.44;101478.00;6045779;28;20184;-65
2022/08/29 10:37:49;;;;;;;7.88;4.30;;;;;;;23.44;57.52;101475.09;6057487;28;20034;-64
2022/08/29 10:40:56;;;;;;;11.45;4.97;;;;;;;23.70;55.37;101466.88;6046914;28;20827;-67
2022/08/29 10:44:03;;;;;;;10.73;4.15;;;;;;;23.69;55.58;101474.19;6034772;28;20397;-65
2022/08/29 10:47:34;;;;;;;9.80;4.45;;;;;;;23.60;55.69;101470.03;6046469;28;20034;-65
2022/08/29 10:50:45;;;;;;;11.65;3.88;;;;;;;23.61;56.21;101471.72;5986799;28;20306;-65
2022/08/29 10:53:44;;;;;;;10.27;4.53;;;;;;;23.66;55.07;101471.91;6054721;28;20038;-66
2022/08/29 10:56:42;;;;;;;8.18;3.70;;;;;;;23.86;55.43;101473.72;6049787;28;20425;-66
2022/08/29 11:00:03;;;;;;;13.57;4.00;;;;;;;23.42;54.59;101478.03;6032191;28;20038;-65
2022/08/29 11:03:10;;;;;;;12.35;4.07;;;;;;;;;;6047579;28;20033;-66
2022/08/29 11:06:13;;;;;;;10.02;4.65;;;;;;;22.85;56.55;101469.69;6038876;28;20038;-66
2022/08/29 11:09:28;;;;;;;11.30;4.07;;;;;;;22.66;57.14;101486.75;6041132;28;20121;-66
2022/08/29 11:12:39;;;;;;;12.73;4.43;;;;;;;22.42;58.16;101480.84;6060057;28;20040;-65
2022/08/29 11:15:41;;;;;;;13.95;4.10;;;;;;;22.57;56.92;101477.13;6062199;28;20734;-65
2022/08/29 11:19:01;;;;;;;8.57;3.67;;;;;;;22.37;57.15;101477.06;6048162;28;20034;-65
2022/08/29 11:22:10;;;;;;;8.25;4.32;;;;;;;22.44;57.42;101462.56;6046005;28;20037;-66
2022/08/29 11:25:12;;;;;;;11.23;4.00;;;;;;;22.43;57.59;101466.28;6047969;28;20377;-64
2022/08/29 11:28:17;;;;;;;10.32;4.10;;;;;;;22.79;57.28;101486.75;6041034;28;20042;-66
2022/08/29 11:31:30;;;;;;;13.82;4.20;;;;;;;22.92;56.78;101487.59;6033440;28;20042;-65
2022/08/29 11:34:33;;;;;;;8.38;4.07;;;;;;;22.78;56.86;101480.50;6045516;28;20477;-66
2022/08/29 11:37:40;;;;;;;10.55;4.20;;;;;;;22.97;56.53;101484.25;6043110;28;20054;-64
2022/08/29 11:40:44;;;;;;;10.13;3.90;;;;;;;22.49;57.24;101473.59;6045315;28;20125;-65
2022/08/29 11:43:48;;;;;;;10.10;3.65;;;;;;;22.87;55.92;101491.97;6046144;28;20039;-65
2022/08/29 11:46:46;;;;;;;12.98;3.85;;;;;;;23.50;53.59;101480.50;6036409;28;20026;-66
2022/08/29 11:49:50;;;;;;;7.18;3.53;;;;;;;24.40;50.74;101482.25;6048124;28;20041;-66
2022/08/29 11:52:52;;;;;;;7.63;3.20;;;;;;;24.03;51.61;101481.13;6037085;28;20042;-64
2022/08/29 11:56:11;;;;;;;7.75;3.50;;;;;;;23.95;52.28;101467.84;6041608;28;20040;-66
2022/08/29 11:59:06;;;;;;;8.68;3.42;;;;;;;23.97;51.89;101468.44;6040683;28;20064;-64
2022/08/29 12:02:01;;;;;;;8.27;3.37;;;;;;;23.96;51.60;101460.53;6040330;28;20489;-66
2022/08/29 12:05:28;;;;;;;8.77;3.40;;;;;;;24.03;51.82;101474.88;6051970;28;20060;-66
2022/08/29 12:08:31;;;;;;;7.93;3.63;;;;;;;24.12;50.91;101457.38;6038739;28;20284;-65
2022/08/29 12:11:58;;;;;;;9.07;3.40;;;;;;;24.41;50.00;101466.78;6046407;28;20111;-65
2022/08/29 12:14:53;;;;;;;8.48;2.90;;;;;;;25.20;49.18;101457.00;6047445;28;20080;-65
2022/08/29 12:17:48;;;;;;;5.70;3.30;;;;;;;25.18;48.02;101453.69;6041048;28;20030;-65
2022/08/29 12:20:52;;;;;;;14.77;3.65;;;;;;;25.36;46.90;101444.72;6036830;28;20066;-65
2022/08/29 12:23:48;;;;;;;9.38;3.00;;;;;;;25.54;46.41;101461.06;6040972;28;20026;-66
2022/08/29 12:26:45;;;;;;;8.68;3.05;;;;;;;25.39;45.85;101449.69;6032197;28;20033;-65
2022/08/29 12:29:41;;;;;;;6.35;2.90;;;;;;;25.65;46.25;101444.00;6045697;28;20042;-64
2022/08/29 12:32:52;;;;;;;7.40;3.13;;;;;;;25.91;45.70;101451.00;6044979;28;20112;-66
2022/08/29 12:36:14;;;;;;;7.10;2.92;;;;;;;25.86;45.40;101448.97;6045523;28;20705;-64
2022/08/29 12:39:53;;;;;;;11.80;4.03;;;;;;;25.71;45.82;101434.13;6038004;28;20041;-65
2022/08/29 12:43:34;;;;;;;7.32;3.30;;;;;;;25.36;46.06;101444.72;6043577;28;20053;-64
2022/08/29 12:46:39;;;;;;;9.23;3.30;;;;;;;25.66;46.52;101429.34;6040852;28;20045;-65
2022/08/29 12:49:47;;;;;;;6.07;3.60;;;;;;;26.07;45.86;101425.88;6046979;28;20087;-64
2022/08/29 12:52:42;;;;;;;6.93;3.30;;;;;;;26.41;45.30;101422.50;6039533;28;20477;-66
2022/08/29 12:55:42;;;;;;;10.60;3.40;;;;;;;26.45;43.48;101422.84;6043561;28;20037;-66
2022/08/29 12:58:44;;;;;;;7.65;3.05;;;;;;;26.03;44.53;101411.94;6021287;28;20417;-64
2022/08/29 13:01:39;;;;;;;5.22;2.75;;;;;;;26.17;44.26;101419.94;6023020;28;20231;-66
2022/08/29 13:04:37;;;;;;;7.22;3.38;;;;;;;26.17;43.95;101420.78;6023098;28;20089;-64
2022/08/29 13:07:33;;;;;;;9.00;3.42;;;;;;;26.36;44.11;101418.81;6023226;28;20659;-65
2022/08/29 13:10:28;;;;;;;9.13;3.30;;;;;;;25.85;44.45;101417.41;6042439;28;20037;-64
2022/08/29 13:13:25;;;;;;;8.45;3.30;;;;;;;25.80;44.54;101400.13;6043753;28;20065;-64
2022/08/29 13:16:24;;;;;;;9.05;3.15;;;;;;;25.31;46.72;101399.22;6022858;28;20042;-65
2022/08/29 13:19:20;;;;;;;9.65;3.20;;;;;;;25.72;46.43;101401.28;6022690;28;20069;-63
2022/08/29 13:22:16;;;;;;;7.28;2.92;;;;;;;25.49;46.19;101390.28;6023433;28;20065;-65
2022/08/29 13:25:15;;;;;;;9.00;3.55;;;;;;;25.64;46.37;101398.88;6038068;28;20381;-64
2022/08/29 13:28:18;;;;;;;9.93;3.38;;;;;;;25.68;46.40;101394.66;6061795;28;20034;-63
2022/08/29 13:31:13;;;;;;;8.85;3.22;;;;;;;26.31;44.44;101397.75;6045166;28;20470;-64
2022/08/29 13:34:12;;;;;;;10.60;3.00;;;;;;;26.64;43.38;101383.59;6043727;28;20041;-64
2022/08/29 13:37:26;;;;;;;8.75;2.67;;;;;;;26.96;41.52;101376.78;6033161;28;20034;-65
2022/08/29 13:40:41;;;;;;;7.90;2.58;;;;;;;26.32;43.23;101363.22;6045841;28;20042;-64
2022/08/29 13:43:40;;;;;;;7.97;2.63;;;;;;;25.58;44.89;101369.06;6045541;28;20041;-63
2022/08/29 13:46:36;;;;;;;9.70;3.22;;;;;;;25.10;46.34;101368.97;6058663;28;20470;-64
2022/08/29 13:49:34;;;;;;;5.97;3.05;;;;;;;25.35;46.16;101356.16;6046343;28;20030;-63
2022/08/29 13:52:29;;;;;;;8.85;2.83;;;;;;;25.13;47.08;101360.38;6045314;28;20124;-64
2022/08/29 13:55:25;;;;;;;7.97;2.80;;;;;;;26.37;43.82;101361.44;6044805;28;20030;-64